Timeline UpdatesTrip UpdatesNews PostsPvt PostsTravel TipsAdmin PostsConv PostsFollowed PostsChat RequestsBlog PostsPNR Posts

Disclaimer
Search
 
 
Fri Apr 18, 2014 11:06:50 ISTHomeTrainsΣChainsAtlasPNRForumGalleryNewsFAQTripsMembersLoginFeedback
No Recent News for this Train
Other Trains in the News **new
Latest...
Additional Stop provided at Kayankulam Jn
Wed Feb 12, 2014 (08:02PM)
⇐ Return Journey: Train# 16335

16336/Nagercoil - Gandhidham Express

Apr 07 (7:55PM)
Change Departure Station:
Change Arrival Station:
Post a Train Travel TipPost a Train Travel Tip **new
Post a Comment/Question/Picture/VideoPost a Comment/Question/Picture/Video
Pantry/Catering
✓ Pantry Car Avbl
✓ Catering Avbl
RSA - Rake Sharing
06309/06310/16335/16336 has RSA.
Rake/Coach Composition
LOCO-SLR-LD-GEN-S1-S2-S3-S4-S5-S6-PC-S7-S8-SS9-S10-S11-S12-A1-B2-B1-GEN-GEN-SLR; Coach position at Ahmedabad.
Loco
NCJ to SRR RPM/ED WAP4 SRR to GIMB ERS WDM3A
News    PNR    Forum    Time-Table    Availability    Fare Chart    Map    Arr/Dep History    Trips    Gallery    ΣChains    X/O    Timeline    
Travel Time: 42h 37m    49 halts    Distance: 2111 km    Avg Speed: 49 km/hr
Type: Mail/Express
Zone: SR/Southern
Departs @ 14:00 (Avg on time)
Platform# 1
  T    
Nagercoil Junction/NCJ 
Arrives @ 08:37 +2 nights (Avg 25m late)
Platform# 1
    T  
Viramgam Junction/VG 

49 halts. 317 intermediate Stations between Nagercoil Junction and Viramgam Junction

Show ALL intermediate Stations  Show Old Time-Table

#CodeStation NameX/OArrivesAvgDepartsAvgHaltPFDay#KmSpeedElevZoneAddress
1NCJ»Nagercoil Junction (3)»  -14:00+0110.05022mSRNagercoil-629002, Tamil Nadu
2TVCTrivandrum Central (5)X  15:25-315:35+110m--171.17012mSRPh: 0471-2321622, Kerala
3QLNKollam Junction (6)  16:30+916:35+95m21135.77016mSRKollam 0474-2746194, Kerala
4KYJKayamkulam Junction (5)X  17:10+617:12+62m--1176.56711mSRAlappuzha Ph;0479-2442042, Kerala
5CNGRChengannur (3)X  17:30+1617:32+172m--1196.7686mSRPh: 0479-2452340, Kerala
6TRVLTiruvalla (2)  17:40+2017:42+242m21205.83627mSRPh: 0469-2601314, Kerala
7KTYMKottayam (3)X  18:25+1818:30+255m11231.53815mSRTel: 0481 2563535, Kerala
8ERNErnakulam Town (North) (2)  20:05+820:10+95m11291.4509mSRTel: 0484 2395198, Kerala
9AWYAluva (3)  20:30+820:32+92m--1308.36612mSRPh: 0484-2624141, Kerala
10TCRThrissur (4)X  21:22+1521:25+153m21362.9366mSRThrissur Tel: 0487 2423150, Kerala
11SRRShoranur Junction (7)  22:20+822:30+2210m--1395.85326mSRShoranur ph.no 0466-2222913, Kerala
12PTBPattambi (2)  22:43+2522:45+242m--1407.46221mSRPattambi, Kerala
13KTUKuttippuram (2)X  23:03+2423:05+242m--1425.85017mSRKuttippuram, Kerala
14TIRTirur (3)  23:23+3123:25+312m--1440.9749mSRTel: 0494 2422240, Kerala
15PGIParappangadi (2)X  23:38+3323:40+332m--1457.07019mSRParappanangadi, Kerala
16FKFerok (2)  23:53+3223:55+322m--1472.22019mSRFeroke, Kerala
17CLTKozhikode Main (4)  00:25+2100:30+225m42482.18111mSRCalicut Tel: 0495 2701234, Kerala
18QLDKoyilandy (3)  00:48+2600:50+262m--2506.57311mSRQuilandi, Kerala
19BDJVadakara (2)X  01:08+2601:10+262m22528.47411mSRCalicut / Station Ph No : 0496-2524254, Kerala
20TLYThalassery (2)  01:28+3001:30+302m--2550.5419mSRKannur, Kerala
21CANKannur Main (3)  02:00+2102:05+265m12571.26714mSRKannur Tel: 0497 2705555, Kerala
22KPQKannapuram (2)  02:18+2902:20+282m--2585.7649mSRKannur District, Kerala
23PAYPayyanur (3)  02:38+2902:40+282m--2604.8540mSRKannur District, Kerala
24KGQKasaragod (3)X  03:38+2003:40+212m--2657.24218mSRTel: 04994 220800, Kerala
25MAJNMangalore Junction (3)X  04:50+905:00+1410m32706.33224mSRMangalore 575001, Karnataka
26SLSurathkal (1)  05:38+1205:40+172m12726.86322mKRSurathkal, Karnataka
27UDUdupi (2)X  06:20+1106:22+182m--2768.77418mKRUdupi, Karnataka
28KUDAKundapura (2)X  06:48+2206:50+312m12800.77713mKRBasrur, Karnataka
29BYNRByndoor Mookambika Road (1)  07:16+4007:18+402m12834.36010mKRUdupi Dist. 576214, Karnataka
30MRDWMurdeshwar (2)  07:48+4207:50+422m--2864.16028mKRMurudeshwara, Karnataka
31KTKumta (2)XO  08:30+4008:32+422m--2904.25920mKRKumta - 581362, Karnataka
32KAWRKarwar (2)  09:28+3509:30+352m--2959.35814mKRKarwar, Karnataka
33CNOCanacona (1)  09:58+3210:00+322m12986.43729mKRPh:-0832-2643644., Goa
34MAOMadgaon Junction (3)  10:55+2111:05+4010m221020.66111mKRMadgaon 403601, Goa
35SWVSawantwadi Road (2)X  12:18+1:0512:20+1:062m121094.94240mKRDist. Sindhudurg, Maharashtra
36RNRatnagiri (3)  16:10+2116:15+235m221255.470129mKRRatnagiri 415612, Maharashtra
37CHIChiplun (2)  17:20+3317:22+312m121330.85112mKRChiplun, Maharashtra
38PNVLPanvel Junction (7)  21:20+1721:25+235m721534.54110mCRPanvel, Maharashtra
39BIRDBhiwandi Road (4)  22:18+2322:20+232m421572.33326mCRBhiwandi, Maharashtra
40BSRVasai Road (7)  23:10+1323:15+175m621599.6607mWRThane-401202, Maharashtra
41BORBoisar (3)00:06+2400:08+242m--31650.48417mWRBoisar Tel.no-02525-266626, Maharashtra
42VAPIVapi (3)X  00:58+2201:00+232m--31720.75627mWRVapi, Gujarat
43BLValsad (3)X  01:28+2301:30+292m131746.94115mWRValsad, Gujarat
44STSurat (4)O  03:10+603:22+712m231815.67519mWRSurat 395001, Gujarat
45AKVAnkleshwar Junction (4)X  04:02+1704:04+172m131865.67019mWRAnkleshwar, Gujarat
46BRCVadodara Junction (7)X  05:12+1805:22+1610m231945.46736mWRVadodara, Gujarat
47ANNDAnand Junction (6)X  05:54+1905:56+192m231981.27444mWRAnand, Gujarat
48NDNadiad Junction (4)XO  06:11+2006:13+192m231999.75937mWRNadiad, Gujarat
49MANManinagar (2)  06:56+2206:58+222m132042.01150mWRAhmadabad, Gujarat
50ADIAhmedabad Junction (12)  07:15+2207:35+2120m332045.26351mWRAhmedabad, Gujarat
51VG•Viramgam Junction (5)•  08:37+2508:39+252m132110.65529mWRViramgam, Gujarat
52DHGDhrangadhra Junction (3)  09:50+2009:52+202m--32175.37454mWRDhrangadhra, Gujarat
53MALBMaliya Miyana Junction (2)  10:54+1810:56+182m--32252.2496mWRMalia, Gujarat
54SIOBSamakhiali Junction (3)  11:44+1311:46+132m132291.46042mWRSamakhiali, Gujarat
55BCOBBhachau (3)  12:02+1212:04+122m132307.33044mWRBhachau, Gujarat
56GIMBGandhidham Junction (3)  13:20+5-332345.1-12mWRGandhidham, Gujarat
Scroll to Top
Scroll to Bottom